sensor_id;sensor_type;location;lat;lon;timestamp;pressure;altitude;pressure_sealevel;temperature;humidity
68859;BME280;55864;49.238;8.092;2022-10-23T00:01:10;99457.00;;;14.03;79.40
68859;BME280;55864;49.238;8.092;2022-10-23T00:03:11;99456.19;;;14.10;78.88
68859;BME280;55864;49.238;8.092;2022-10-23T00:05:11;99452.91;;;14.16;79.03
68859;BME280;55864;49.238;8.092;2022-10-23T00:07:11;99449.91;;;14.19;78.52
68859;BME280;55864;49.238;8.092;2022-10-23T00:09:13;99445.31;;;14.13;78.61
68859;BME280;55864;49.238;8.092;2022-10-23T00:11:18;99445.13;;;13.83;80.32
68859;BME280;55864;49.238;8.092;2022-10-23T00:13:18;99432.41;;;13.78;80.23
68859;BME280;55864;49.238;8.092;2022-10-23T00:15:20;99436.34;;;13.66;81.07
68859;BME280;55864;49.238;8.092;2022-10-23T00:17:22;99432.69;;;13.51;81.73
68859;BME280;55864;49.238;8.092;2022-10-23T00:19:22;99432.66;;;13.43;82.12
68859;BME280;55864;49.238;8.092;2022-10-23T00:21:23;99427.59;;;13.58;81.92
68859;BME280;55864;49.238;8.092;2022-10-23T00:23:24;99424.66;;;13.85;80.61
68859;BME280;55864;49.238;8.092;2022-10-23T00:25:24;99424.13;;;13.65;81.28
68859;BME280;55864;49.238;8.092;2022-10-23T00:27:27;99427.22;;;13.45;81.96
68859;BME280;55864;49.238;8.092;2022-10-23T00:29:27;99429.75;;;13.62;81.72
68859;BME280;55864;49.238;8.092;2022-10-23T00:31:28;99426.78;;;13.89;80.04
68859;BME280;55864;49.238;8.092;2022-10-23T00:33:29;99428.63;;;13.97;79.49
68859;BME280;55864;49.238;8.092;2022-10-23T00:35:30;99424.81;;;13.91;79.44
68859;BME280;55864;49.238;8.092;2022-10-23T00:37:30;99423.19;;;13.98;79.73
68859;BME280;55864;49.238;8.092;2022-10-23T00:39:31;99428.44;;;13.74;80.72
68859;BME280;55864;49.238;8.092;2022-10-23T00:41:32;99432.41;;;13.78;80.94
68859;BME280;55864;49.238;8.092;2022-10-23T00:43:57;99422.81;;;13.61;81.52
68859;BME280;55864;49.238;8.092;2022-10-23T00:45:58;99423.81;;;13.84;80.30
68859;BME280;55864;49.238;8.092;2022-10-23T00:47:59;99413.56;;;13.65;81.04
68859;BME280;55864;49.238;8.092;2022-10-23T00:50:00;99412.09;;;13.55;82.25
68859;BME280;55864;49.238;8.092;2022-10-23T00:52:04;99412.06;;;13.47;82.28
68859;BME280;55864;49.238;8.092;2022-10-23T00:54:06;99413.84;;;13.30;82.38
68859;BME280;55864;49.238;8.092;2022-10-23T00:56:08;99416.09;;;13.25;82.62
68859;BME280;55864;49.238;8.092;2022-10-23T00:58:08;99414.78;;;13.21;82.85
68859;BME280;55864;49.238;8.092;2022-10-23T01:00:15;99403.03;;;13.15;83.20
68859;BME280;55864;49.238;8.092;2022-10-23T01:02:16;99407.88;;;13.36;82.86
68859;BME280;55864;49.238;8.092;2022-10-23T01:04:17;99409.09;;;13.42;82.06
68859;BME280;55864;49.238;8.092;2022-10-23T01:06:25;99396.16;;;13.23;83.33
68859;BME280;55864;49.238;8.092;2022-10-23T01:08:33;99389.19;;;13.05;83.44
68859;BME280;55864;49.238;8.092;2022-10-23T01:10:38;99394.72;;;13.02;83.43
68859;BME280;55864;49.238;8.092;2022-10-23T01:12:47;99396.09;;;13.06;83.66
68859;BME280;55864;49.238;8.092;2022-10-23T01:15:00;99395.59;;;13.03;83.73
68859;BME280;55864;49.238;8.092;2022-10-23T01:17:10;99401.25;;;13.16;83.50
68859;BME280;55864;49.238;8.092;2022-10-23T01:19:20;99399.69;;;13.47;81.10
68859;BME280;55864;49.238;8.092;2022-10-23T01:21:29;99389.13;;;13.47;81.31
68859;BME280;55864;49.238;8.092;2022-10-23T01:23:51;99390.97;;;13.55;81.82
68859;BME280;55864;49.238;8.092;2022-10-23T01:28:33;99386.84;;;13.60;81.67
68859;BME280;55864;49.238;8.092;2022-10-23T01:30:39;99393.28;;;13.66;80.75
68859;BME280;55864;49.238;8.092;2022-10-23T01:32:44;99392.28;;;13.67;80.81
68859;BME280;55864;49.238;8.092;2022-10-23T01:34:51;99393.72;;;13.37;82.18
68859;BME280;55864;49.238;8.092;2022-10-23T01:36:54;99395.91;;;13.42;81.64
68859;BME280;55864;49.238;8.092;2022-10-23T01:38:58;99397.41;;;13.60;81.00
68859;BME280;55864;49.238;8.092;2022-10-23T01:41:04;99402.53;;;13.62;80.62
68859;BME280;55864;49.238;8.092;2022-10-23T01:43:11;99387.16;;;13.57;81.08
68859;BME280;55864;49.238;8.092;2022-10-23T01:45:18;99388.44;;;13.37;82.30
68859;BME280;55864;49.238;8.092;2022-10-23T01:47:24;99386.47;;;13.39;82.19
68859;BME280;55864;49.238;8.092;2022-10-23T01:49:41;99376.72;;;13.32;82.12
68859;BME280;55864;49.238;8.092;2022-10-23T01:51:46;99370.94;;;13.20;82.87
68859;BME280;55864;49.238;8.092;2022-10-23T01:53:49;99374.19;;;13.14;82.64
68859;BME280;55864;49.238;8.092;2022-10-23T01:55:52;99371.22;;;13.09;83.38
68859;BME280;55864;49.238;8.092;2022-10-23T01:57:58;99377.56;;;12.98;82.82
68859;BME280;55864;49.238;8.092;2022-10-23T02:00:10;99381.81;;;13.25;82.76
68859;BME280;55864;49.238;8.092;2022-10-23T02:02:27;99372.56;;;13.13;83.23
68859;BME280;55864;49.238;8.092;2022-10-23T02:04:30;99373.19;;;13.07;82.91
68859;BME280;55864;49.238;8.092;2022-10-23T02:06:33;99379.03;;;12.93;83.25
68859;BME280;55864;49.238;8.092;2022-10-23T02:08:34;99371.47;;;12.90;83.79
68859;BME280;55864;49.238;8.092;2022-10-23T02:10:40;99374.09;;;12.90;83.46
68859;BME280;55864;49.238;8.092;2022-10-23T02:12:48;99367.16;;;13.23;82.68
68859;BME280;55864;49.238;8.092;2022-10-23T02:14:52;99361.53;;;13.26;82.63
68859;BME280;55864;49.238;8.092;2022-10-23T02:16:57;99360.88;;;13.23;82.62
68859;BME280;55864;49.238;8.092;2022-10-23T02:19:11;99357.44;;;13.39;81.37
68859;BME280;55864;49.238;8.092;2022-10-23T02:21:20;99357.63;;;13.38;81.96
68859;BME280;55864;49.238;8.092;2022-10-23T02:23:28;99358.75;;;13.19;82.30
68859;BME280;55864;49.238;8.092;2022-10-23T02:25:33;99354.97;;;13.38;81.98
68859;BME280;55864;49.238;8.092;2022-10-23T02:27:39;99353.84;;;13.48;81.95
68859;BME280;55864;49.238;8.092;2022-10-23T02:29:44;99340.97;;;13.45;82.02
68859;BME280;55864;49.238;8.092;2022-10-23T02:31:46;99337.50;;;13.45;82.12
68859;BME280;55864;49.238;8.092;2022-10-23T02:33:46;99336.22;;;13.57;80.94
68859;BME280;55864;49.238;8.092;2022-10-23T02:35:49;99343.44;;;13.47;81.28
68859;BME280;55864;49.238;8.092;2022-10-23T02:37:58;99350.53;;;13.30;81.75
68859;BME280;55864;49.238;8.092;2022-10-23T02:40:01;99338.66;;;13.42;80.97
68859;BME280;55864;49.238;8.092;2022-10-23T02:42:10;99340.44;;;13.26;81.88
68859;BME280;55864;49.238;8.092;2022-10-23T02:44:29;99348.53;;;13.32;82.17
68859;BME280;55864;49.238;8.092;2022-10-23T02:46:43;99342.75;;;13.20;81.98
68859;BME280;55864;49.238;8.092;2022-10-23T02:48:54;99341.94;;;13.36;81.80
68859;BME280;55864;49.238;8.092;2022-10-23T02:51:02;99336.19;;;13.49;80.81
68859;BME280;55864;49.238;8.092;2022-10-23T02:53:10;99330.41;;;13.37;81.27
68859;BME280;55864;49.238;8.092;2022-10-23T02:55:22;99323.47;;;13.36;81.04
68859;BME280;55864;49.238;8.092;2022-10-23T02:57:30;99332.31;;;13.03;82.01
68859;BME280;55864;49.238;8.092;2022-10-23T02:59:36;99330.94;;;12.99;82.72
68859;BME280;55864;49.238;8.092;2022-10-23T03:01:48;99332.03;;;13.22;82.03
68859;BME280;55864;49.238;8.092;2022-10-23T03:03:52;99335.72;;;12.95;82.41
68859;BME280;55864;49.238;8.092;2022-10-23T03:05:54;99330.00;;;13.08;81.95
68859;BME280;55864;49.238;8.092;2022-10-23T03:07:56;99334.25;;;13.01;82.40
68859;BME280;55864;49.238;8.092;2022-10-23T03:09:57;99337.31;;;13.30;80.90
68859;BME280;55864;49.238;8.092;2022-10-23T03:11:57;99333.38;;;13.42;79.94
68859;BME280;55864;49.238;8.092;2022-10-23T03:13:58;99334.69;;;13.46;79.56
68859;BME280;55864;49.238;8.092;2022-10-23T03:15:59;99330.56;;;13.52;79.56
68859;BME280;55864;49.238;8.092;2022-10-23T03:18:00;99326.78;;;13.54;78.84
68859;BME280;55864;49.238;8.092;2022-10-23T03:20:01;99324.81;;;13.56;79.24
68859;BME280;55864;49.238;8.092;2022-10-23T03:22:01;99328.22;;;13.16;80.89
68859;BME280;55864;49.238;8.092;2022-10-23T03:24:04;99329.06;;;13.25;81.78
68859;BME280;55864;49.238;8.092;2022-10-23T03:26:10;99327.22;;;13.09;81.95
68859;BME280;55864;49.238;8.092;2022-10-23T03:28:15;99331.97;;;13.06;82.89
68859;BME280;55864;49.238;8.092;2022-10-23T03:30:17;99318.16;;;13.20;81.81
68859;BME280;55864;49.238;8.092;2022-10-23T03:32:22;99312.47;;;12.99;82.91
68859;BME280;55864;49.238;8.092;2022-10-23T03:34:23;99311.25;;;13.19;82.04
68859;BME280;55864;49.238;8.092;2022-10-23T03:36:25;99310.59;;;13.33;81.16
68859;BME280;55864;49.238;8.092;2022-10-23T03:38:27;99310.94;;;13.22;81.63
68859;BME280;55864;49.238;8.092;2022-10-23T03:40:28;99318.25;;;12.94;82.25
68859;BME280;55864;49.238;8.092;2022-10-23T03:42:29;99310.66;;;12.91;82.43
68859;BME280;55864;49.238;8.092;2022-10-23T03:44:29;99312.91;;;12.78;82.18
68859;BME280;55864;49.238;8.092;2022-10-23T03:46:31;99307.97;;;12.75;82.92
68859;BME280;55864;49.238;8.092;2022-10-23T03:48:31;99310.34;;;12.94;82.74
68859;BME280;55864;49.238;8.092;2022-10-23T03:50:33;99304.94;;;13.04;82.25
68859;BME280;55864;49.238;8.092;2022-10-23T03:52:33;99303.63;;;13.08;82.10
68859;BME280;55864;49.238;8.092;2022-10-23T03:54:34;99301.28;;;12.97;83.09
68859;BME280;55864;49.238;8.092;2022-10-23T03:56:36;99306.19;;;12.84;83.04
68859;BME280;55864;49.238;8.092;2022-10-23T03:58:36;99299.13;;;12.92;82.86
68859;BME280;55864;49.238;8.092;2022-10-23T04:00:37;99302.09;;;12.97;82.82
68859;BME280;55864;49.238;8.092;2022-10-23T04:02:37;99295.81;;;12.82;83.82
68859;BME280;55864;49.238;8.092;2022-10-23T04:04:38;99290.53;;;12.82;83.84
68859;BME280;55864;49.238;8.092;2022-10-23T04:06:39;99293.00;;;12.84;84.55
68859;BME280;55864;49.238;8.092;2022-10-23T04:08:41;99291.00;;;12.78;84.86
68859;BME280;55864;49.238;8.092;2022-10-23T04:10:47;99292.06;;;13.01;83.99
68859;BME280;55864;49.238;8.092;2022-10-23T04:12:49;99300.97;;;13.00;84.31
68859;BME280;55864;49.238;8.092;2022-10-23T04:14:50;99300.44;;;12.96;85.32
68859;BME280;55864;49.238;8.092;2022-10-23T04:16:50;99299.94;;;12.93;84.84
68859;BME280;55864;49.238;8.092;2022-10-23T04:18:51;99305.56;;;12.98;83.98
68859;BME280;55864;49.238;8.092;2022-10-23T04:20:52;99305.38;;;12.91;84.26
68859;BME280;55864;49.238;8.092;2022-10-23T04:22:52;99297.00;;;12.96;84.66
68859;BME280;55864;49.238;8.092;2022-10-23T04:24:53;99300.75;;;12.85;85.43
68859;BME280;55864;49.238;8.092;2022-10-23T04:26:54;99303.25;;;12.87;84.54
68859;BME280;55864;49.238;8.092;2022-10-23T04:28:56;99302.25;;;12.88;85.67
68859;BME280;55864;49.238;8.092;2022-10-23T04:30:56;99310.91;;;13.14;83.72
68859;BME280;55864;49.238;8.092;2022-10-23T04:32:57;99309.59;;;13.18;84.04
68859;BME280;55864;49.238;8.092;2022-10-23T04:34:57;99311.25;;;13.19;84.01
68859;BME280;55864;49.238;8.092;2022-10-23T04:36:58;99313.47;;;12.98;84.77
68859;BME280;55864;49.238;8.092;2022-10-23T04:38:59;99307.28;;;13.23;83.62
68859;BME280;55864;49.238;8.092;2022-10-23T04:40:59;99310.59;;;13.25;84.12
68859;BME280;55864;49.238;8.092;2022-10-23T04:43:00;99313.72;;;13.12;84.75
68859;BME280;55864;49.238;8.092;2022-10-23T04:45:06;99309.28;;;13.29;83.98
68859;BME280;55864;49.238;8.092;2022-10-23T04:47:08;99308.09;;;13.15;84.79
68859;BME280;55864;49.238;8.092;2022-10-23T04:49:17;99312.56;;;13.23;84.48
68859;BME280;55864;49.238;8.092;2022-10-23T04:51:44;99309.28;;;13.13;85.45
68859;BME280;55864;49.238;8.092;2022-10-23T04:54:04;99302.19;;;13.21;85.14
68859;BME280;55864;49.238;8.092;2022-10-23T04:56:28;99297.22;;;13.10;85.93
68859;BME280;55864;49.238;8.092;2022-10-23T04:58:41;99294.44;;;13.28;85.13
68859;BME280;55864;49.238;8.092;2022-10-23T05:00:43;99289.47;;;13.25;85.88
68859;BME280;55864;49.238;8.092;2022-10-23T05:02:44;99284.06;;;13.18;86.38
68859;BME280;55864;49.238;8.092;2022-10-23T05:04:47;99287.19;;;13.30;85.20
68859;BME280;55864;49.238;8.092;2022-10-23T05:07:06;99296.06;;;13.21;86.10
68859;BME280;55864;49.238;8.092;2022-10-23T05:09:17;99297.72;;;13.14;86.03
68859;BME280;55864;49.238;8.092;2022-10-23T05:11:29;99305.59;;;13.06;86.43
68859;BME280;55864;49.238;8.092;2022-10-23T05:13:30;99298.53;;;13.06;85.63
68859;BME280;55864;49.238;8.092;2022-10-23T05:15:30;99290.97;;;13.19;85.68
68859;BME280;55864;49.238;8.092;2022-10-23T05:17:34;99287.03;;;13.32;85.40
68859;BME280;55864;49.238;8.092;2022-10-23T05:19:40;99285.56;;;13.37;84.98
68859;BME280;55864;49.238;8.092;2022-10-23T05:21:42;99279.28;;;13.22;85.98
68859;BME280;55864;49.238;8.092;2022-10-23T05:23:43;99279.28;;;13.22;86.10
68859;BME280;55864;49.238;8.092;2022-10-23T05:25:46;99273.00;;;13.31;85.11
68859;BME280;55864;49.238;8.092;2022-10-23T05:27:51;99274.50;;;13.26;85.38
68859;BME280;55864;49.238;8.092;2022-10-23T05:29:51;99265.28;;;13.38;84.66
68859;BME280;55864;49.238;8.092;2022-10-23T05:31:59;99267.91;;;13.38;84.99
68859;BME280;55864;49.238;8.092;2022-10-23T05:34:04;99260.47;;;13.25;85.92
68859;BME280;55864;49.238;8.092;2022-10-23T05:36:06;99265.41;;;13.20;86.33
68859;BME280;55864;49.238;8.092;2022-10-23T05:38:07;99258.31;;;13.12;86.28
68859;BME280;55864;49.238;8.092;2022-10-23T05:40:12;99254.03;;;13.19;86.19
68859;BME280;55864;49.238;8.092;2022-10-23T05:42:15;99264.09;;;13.16;86.00
68859;BME280;55864;49.238;8.092;2022-10-23T05:44:16;99261.63;;;13.23;85.97
68859;BME280;55864;49.238;8.092;2022-10-23T05:46:38;99266.91;;;13.14;85.97
68859;BME280;55864;49.238;8.092;2022-10-23T05:49:01;99268.88;;;13.20;85.83
68859;BME280;55864;49.238;8.092;2022-10-23T05:51:18;99262.47;;;13.31;84.78
68859;BME280;55864;49.238;8.092;2022-10-23T05:53:39;99257.03;;;13.41;83.37
68859;BME280;55864;49.238;8.092;2022-10-23T05:55:54;99258.16;;;13.38;84.18
68859;BME280;55864;49.238;8.092;2022-10-23T05:58:21;99268.41;;;13.17;84.68
68859;BME280;55864;49.238;8.092;2022-10-23T06:00:40;99261.13;;;13.59;83.46
68859;BME280;55864;49.238;8.092;2022-10-23T06:03:01;99256.16;;;13.80;81.00
68859;BME280;55864;49.238;8.092;2022-10-23T06:05:09;99245.47;;;13.74;81.32
68859;BME280;55864;49.238;8.092;2022-10-23T06:07:29;99242.03;;;13.49;82.36
68859;BME280;55864;49.238;8.092;2022-10-23T06:09:31;99245.78;;;13.31;83.23
68859;BME280;55864;49.238;8.092;2022-10-23T06:11:32;99250.09;;;13.23;84.34
68859;BME280;55864;49.238;8.092;2022-10-23T06:13:41;99244.97;;;13.22;84.70
68859;BME280;55864;49.238;8.092;2022-10-23T06:15:42;99246.13;;;13.44;82.90
68859;BME280;55864;49.238;8.092;2022-10-23T06:17:59;99244.66;;;13.49;82.43
68859;BME280;55864;49.238;8.092;2022-10-23T06:20:00;99235.91;;;13.41;83.02
68859;BME280;55864;49.238;8.092;2022-10-23T06:22:01;99239.03;;;13.20;83.91
68859;BME280;55864;49.238;8.092;2022-10-23T06:24:17;99235.94;;;13.25;83.38
68859;BME280;55864;49.238;8.092;2022-10-23T06:26:25;99233.44;;;13.23;83.85
68859;BME280;55864;49.238;8.092;2022-10-23T06:28:31;99240.34;;;13.16;84.92
68859;BME280;55864;49.238;8.092;2022-10-23T06:30:32;99245.59;;;13.00;85.21
68859;BME280;55864;49.238;8.092;2022-10-23T06:32:33;99239.16;;;12.94;85.37
68859;BME280;55864;49.238;8.092;2022-10-23T06:34:45;99243.19;;;13.23;84.08
68859;BME280;55864;49.238;8.092;2022-10-23T06:36:46;99246.13;;;13.19;84.54
68859;BME280;55864;49.238;8.092;2022-10-23T06:39:05;99234.44;;;13.22;84.61
68859;BME280;55864;49.238;8.092;2022-10-23T06:41:28;99244.31;;;13.12;85.58
68859;BME280;55864;49.238;8.092;2022-10-23T06:43:29;99241.34;;;13.31;83.80
68859;BME280;55864;49.238;8.092;2022-10-23T06:45:51;99244.50;;;13.27;85.25
68859;BME280;55864;49.238;8.092;2022-10-23T06:48:13;99245.94;;;13.21;85.26
68859;BME280;55864;49.238;8.092;2022-10-23T06:50:29;99238.56;;;13.16;86.36
68859;BME280;55864;49.238;8.092;2022-10-23T06:52:30;99241.34;;;13.23;86.25
68859;BME280;55864;49.238;8.092;2022-10-23T06:54:30;99241.50;;;13.21;86.22
68859;BME280;55864;49.238;8.092;2022-10-23T06:56:41;99241.66;;;13.12;86.60
68859;BME280;55864;49.238;8.092;2022-10-23T06:58:43;99239.72;;;13.30;85.64
68859;BME280;55864;49.238;8.092;2022-10-23T07:00:48;99259.00;;;13.23;86.41
68859;BME280;55864;49.238;8.092;2022-10-23T07:02:49;99252.88;;;13.38;85.39
68859;BME280;55864;49.238;8.092;2022-10-23T07:04:50;99259.50;;;13.34;86.19
68859;BME280;55864;49.238;8.092;2022-10-23T07:06:54;99273.50;;;13.35;86.39
68859;BME280;55864;49.238;8.092;2022-10-23T07:08:58;99271.22;;;13.32;86.66
68859;BME280;55864;49.238;8.092;2022-10-23T07:11:18;99265.44;;;13.44;85.68
68859;BME280;55864;49.238;8.092;2022-10-23T07:13:23;99266.75;;;13.40;86.37
68859;BME280;55864;49.238;8.092;2022-10-23T07:15:31;99267.09;;;13.45;86.09
68859;BME280;55864;49.238;8.092;2022-10-23T07:17:32;99269.56;;;13.55;85.88
68859;BME280;55864;49.238;8.092;2022-10-23T07:19:33;99266.75;;;13.64;85.50
68859;BME280;55864;49.238;8.092;2022-10-23T07:21:41;99258.84;;;13.64;85.81
68859;BME280;55864;49.238;8.092;2022-10-23T07:24:02;99257.16;;;13.63;85.87
68859;BME280;55864;49.238;8.092;2022-10-23T07:26:05;99259.97;;;13.62;86.37
68859;BME280;55864;49.238;8.092;2022-10-23T07:28:07;99256.34;;;13.71;86.01
68859;BME280;55864;49.238;8.092;2022-10-23T07:30:15;99264.44;;;13.69;86.48
68859;BME280;55864;49.238;8.092;2022-10-23T07:32:20;99266.72;;;13.72;86.44
68859;BME280;55864;49.238;8.092;2022-10-23T07:34:40;99257.84;;;13.73;86.27
68859;BME280;55864;49.238;8.092;2022-10-23T07:36:58;99260.13;;;13.68;86.69
68859;BME280;55864;49.238;8.092;2022-10-23T07:38:59;99264.56;;;13.76;86.53
68859;BME280;55864;49.238;8.092;2022-10-23T07:41:00;99273.31;;;13.68;87.23
68859;BME280;55864;49.238;8.092;2022-10-23T07:43:01;99256.81;;;13.82;85.49
68859;BME280;55864;49.238;8.092;2022-10-23T07:45:01;99263.59;;;13.77;87.07
68859;BME280;55864;49.238;8.092;2022-10-23T07:47:04;99258.81;;;13.80;86.97
68859;BME280;55864;49.238;8.092;2022-10-23T07:49:05;99258.44;;;13.91;85.76
68859;BME280;55864;49.238;8.092;2022-10-23T07:51:07;99259.78;;;13.87;85.95
68859;BME280;55864;49.238;8.092;2022-10-23T07:53:17;99258.78;;;13.88;86.72
68859;BME280;55864;49.238;8.092;2022-10-23T07:55:19;99262.94;;;13.91;86.17
68859;BME280;55864;49.238;8.092;2022-10-23T07:57:27;99245.72;;;14.03;85.40
68859;BME280;55864;49.238;8.092;2022-10-23T07:59:33;99248.84;;;14.06;86.29
68859;BME280;55864;49.238;8.092;2022-10-23T08:01:37;99244.53;;;14.13;84.41
68859;BME280;55864;49.238;8.092;2022-10-23T08:03:39;99252.47;;;14.13;85.50
68859;BME280;55864;49.238;8.092;2022-10-23T08:05:40;99254.75;;;14.16;85.33
68859;BME280;55864;49.238;8.092;2022-10-23T08:07:41;99266.13;;;14.25;83.49
68859;BME280;55864;49.238;8.092;2022-10-23T08:09:42;99264.63;;;14.39;83.72
68859;BME280;55864;49.238;8.092;2022-10-23T08:11:43;99260.16;;;14.39;82.46
68859;BME280;55864;49.238;8.092;2022-10-23T08:13:48;99263.09;;;14.44;82.58
68859;BME280;55864;49.238;8.092;2022-10-23T08:15:50;99268.75;;;14.80;81.79
68859;BME280;55864;49.238;8.092;2022-10-23T08:18:29;99259.75;;;15.42;79.04
68859;BME280;55864;49.238;8.092;2022-10-23T08:20:31;99251.44;;;15.82;77.59
68859;BME280;55864;49.238;8.092;2022-10-23T08:22:32;99237.19;;;16.42;73.82
68859;BME280;55864;49.238;8.092;2022-10-23T08:24:32;99244.69;;;15.94;76.67
68859;BME280;55864;49.238;8.092;2022-10-23T08:26:33;99238.56;;;15.79;77.08
68859;BME280;55864;49.238;8.092;2022-10-23T08:28:34;99233.50;;;15.55;77.36
68859;BME280;55864;49.238;8.092;2022-10-23T08:30:36;99232.41;;;15.50;78.44
68859;BME280;55864;49.238;8.092;2022-10-23T08:32:37;99228.13;;;15.41;78.87
68859;BME280;55864;49.238;8.092;2022-10-23T08:34:37;99227.84;;;15.36;78.83
68859;BME280;55864;49.238;8.092;2022-10-23T08:36:39;99228.44;;;15.23;79.58
68859;BME280;55864;49.238;8.092;2022-10-23T08:38:40;99232.38;;;15.27;81.37
68859;BME280;55864;49.238;8.092;2022-10-23T08:40:45;99219.88;;;15.21;80.88
68859;BME280;55864;49.238;8.092;2022-10-23T08:43:13;99222.78;;;15.26;80.84
68859;BME280;55864;49.238;8.092;2022-10-23T08:45:32;99228.91;;;15.27;81.25
68859;BME280;55864;49.238;8.092;2022-10-23T08:47:44;99217.97;;;15.30;80.76
68859;BME280;55864;49.238;8.092;2022-10-23T08:50:27;99219.63;;;15.31;81.15
68859;BME280;55864;49.238;8.092;2022-10-23T08:52:34;99216.31;;;15.29;81.29
68859;BME280;55864;49.238;8.092;2022-10-23T08:54:44;99210.03;;;15.30;81.71
68859;BME280;55864;49.238;8.092;2022-10-23T08:56:48;99205.03;;;15.35;81.67
68859;BME280;55864;49.238;8.092;2022-10-23T08:58:53;99211.75;;;15.45;81.15
68859;BME280;55864;49.238;8.092;2022-10-23T09:00:56;99204.97;;;15.43;81.19
68859;BME280;55864;49.238;8.092;2022-10-23T09:02:59;99206.44;;;15.45;80.44
68859;BME280;55864;49.238;8.092;2022-10-23T09:05:01;99205.66;;;15.59;80.37
68859;BME280;55864;49.238;8.092;2022-10-23T09:07:09;99213.69;;;15.66;80.27
68859;BME280;55864;49.238;8.092;2022-10-23T09:09:40;99211.88;;;15.66;79.95
68859;BME280;55864;49.238;8.092;2022-10-23T09:11:50;99208.13;;;15.75;80.27
68859;BME280;55864;49.238;8.092;2022-10-23T09:14:22;99202.66;;;15.77;79.61
68859;BME280;55864;49.238;8.092;2022-10-23T09:16:42;99205.03;;;15.86;79.47
68859;BME280;55864;49.238;8.092;2022-10-23T09:18:47;99206.44;;;15.97;79.56
68859;BME280;55864;49.238;8.092;2022-10-23T09:20:48;99203.50;;;16.07;79.43
68859;BME280;55864;49.238;8.092;2022-10-23T09:22:53;99198.38;;;16.20;79.21
68859;BME280;55864;49.238;8.092;2022-10-23T09:24:55;99197.81;;;16.24;78.80
68859;BME280;55864;49.238;8.092;2022-10-23T09:26:56;99187.66;;;16.28;78.54
68859;BME280;55864;49.238;8.092;2022-10-23T09:29:06;99196.09;;;16.31;76.72
68859;BME280;55864;49.238;8.092;2022-10-23T09:31:14;99193.16;;;16.41;76.33
68859;BME280;55864;49.238;8.092;2022-10-23T09:33:16;99191.22;;;16.85;75.75
68859;BME280;55864;49.238;8.092;2022-10-23T09:35:21;99201.09;;;17.33;73.84
68859;BME280;55864;49.238;8.092;2022-10-23T09:37:24;99187.19;;;17.10;74.37
68859;BME280;55864;49.238;8.092;2022-10-23T09:39:28;99191.41;;;17.05;74.89
68859;BME280;55864;49.238;8.092;2022-10-23T09:41:36;99188.88;;;16.97;75.73
68859;BME280;55864;49.238;8.092;2022-10-23T09:43:37;99178.53;;;16.80;75.31
68859;BME280;55864;49.238;8.092;2022-10-23T09:45:38;99173.78;;;16.76;75.90
68859;BME280;55864;49.238;8.092;2022-10-23T09:47:42;99158.66;;;16.55;76.38
68859;BME280;55864;49.238;8.092;2022-10-23T09:49:46;99166.31;;;16.65;76.85
68859;BME280;55864;49.238;8.092;2022-10-23T09:51:54;99161.81;;;16.65;75.74
68859;BME280;55864;49.238;8.092;2022-10-23T09:53:58;99155.97;;;16.70;75.67
68859;BME280;55864;49.238;8.092;2022-10-23T09:56:01;99152.63;;;16.61;76.93
68859;BME280;55864;49.238;8.092;2022-10-23T09:58:04;99158.72;;;16.62;77.22
68859;BME280;55864;49.238;8.092;2022-10-23T10:00:16;99169.34;;;16.62;78.21
68859;BME280;55864;49.238;8.092;2022-10-23T10:02:23;99167.94;;;16.66;77.84
68859;BME280;55864;49.238;8.092;2022-10-23T10:04:55;99175.41;;;16.77;78.38
68859;BME280;55864;49.238;8.092;2022-10-23T10:06:56;99174.84;;;16.81;78.35
68859;BME280;55864;49.238;8.092;2022-10-23T10:08:58;99180.84;;;16.90;77.08
68859;BME280;55864;49.238;8.092;2022-10-23T10:11:01;99179.97;;;16.83;75.72
68859;BME280;55864;49.238;8.092;2022-10-23T10:13:07;99182.06;;;16.87;75.67
68859;BME280;55864;49.238;8.092;2022-10-23T10:15:20;99181.63;;;16.84;74.32
68859;BME280;55864;49.238;8.092;2022-10-23T10:17:33;99175.94;;;16.87;74.25
68859;BME280;55864;49.238;8.092;2022-10-23T10:19:47;99166.69;;;16.83;74.77
68859;BME280;55864;49.238;8.092;2022-10-23T10:22:00;99165.06;;;16.82;75.55
68859;BME280;55864;49.238;8.092;2022-10-23T10:24:06;99159.97;;;16.80;75.25
68859;BME280;55864;49.238;8.092;2022-10-23T10:26:17;99154.47;;;16.82;75.17
68859;BME280;55864;49.238;8.092;2022-10-23T10:28:30;99150.34;;;16.79;75.56
68859;BME280;55864;49.238;8.092;2022-10-23T10:30:38;99134.94;;;16.89;75.21
68859;BME280;55864;49.238;8.092;2022-10-23T10:32:46;99130.94;;;17.00;74.72
68859;BME280;55864;49.238;8.092;2022-10-23T10:34:52;99120.72;;;16.97;75.39
68859;BME280;55864;49.238;8.092;2022-10-23T10:36:56;99114.50;;;16.90;74.75
68859;BME280;55864;49.238;8.092;2022-10-23T10:38:59;99131.06;;;16.92;75.10
68859;BME280;55864;49.238;8.092;2022-10-23T10:41:07;99131.78;;;17.01;74.78
68859;BME280;55864;49.238;8.092;2022-10-23T10:43:24;99127.75;;;17.11;74.29
68859;BME280;55864;49.238;8.092;2022-10-23T10:45:32;99136.88;;;17.85;71.29
68859;BME280;55864;49.238;8.092;2022-10-23T10:47:39;99155.03;;;17.75;71.92
68859;BME280;55864;49.238;8.092;2022-10-23T10:49:58;99156.66;;;17.69;71.98
68859;BME280;55864;49.238;8.092;2022-10-23T10:52:32;99168.63;;;17.59;72.20
68859;BME280;55864;49.238;8.092;2022-10-23T10:54:42;99173.94;;;17.59;71.75
68859;BME280;55864;49.238;8.092;2022-10-23T10:56:47;99162.66;;;17.57;71.12
68859;BME280;55864;49.238;8.092;2022-10-23T10:58:50;99148.34;;;17.51;71.28
68859;BME280;55864;49.238;8.092;2022-10-23T11:00:55;99139.16;;;17.54;72.05
68859;BME280;55864;49.238;8.092;2022-10-23T11:03:01;99144.22;;;17.49;72.06
68859;BME280;55864;49.238;8.092;2022-10-23T11:05:14;99132.47;;;17.37;72.85
68859;BME280;55864;49.238;8.092;2022-10-23T11:07:19;99125.56;;;17.42;72.91
68859;BME280;55864;49.238;8.092;2022-10-23T11:09:24;99119.53;;;17.55;72.35
68859;BME280;55864;49.238;8.092;2022-10-23T11:11:30;99121.13;;;17.49;72.32